Home > Products > Valid Products > MTR

000
SAUS44 KMAF 180715 COR
MTRGDP
METAR KGDP 180651Z AUTO 25028G35KT 10SM CLR 07/M01 A3010 RMK AO2 PK
WND 27037/0621 SLP164 T00671006 401330028





000
SAUS44 KMAF 180714
MTRGDP
METAR KGDP 180651Z AUTO 25028G35KT 10SM CLR 07/M01 A3010 RMK AO2 PK
WND 27037/0621 SLP164 T00671006 401330028





000
SAUS44 KMAF 180654
MTR6R6
METAR K6R6 180653Z AUTO 00000KT 09/08 A3009 RMK AO1 SLP175 T00940083





000
SAUS44 KMAF 180623 COR
MTRGDP
METAR KGDP 180551Z AUTO 26025G30KT 10SM CLR 07/M01 A3013 RMK AO2 PK
WND 25030/0550 SLP171 T00671006 10089 20056 50002





000
SAUS44 KMAF 180622 COR
MTRGDP
METAR KGDP 180551Z AUTO 26025G30KT 10SM CLR 07/M01 A3013 RMK AO2 PK
WND 25030/0550 SLP171 T00671006 10089 20056 50002





000
SAUS44 KMAF 180616 COR
MTRGDP
METAR KGDP 180551Z AUTO 26025G30KT 10SM CLR 07/M01 A3013 RMK AO2 PK
WND 25030/0550 SLP171 T00671006 10089 20056 50002





000
SAUS44 KMAF 180615
MTRGDP
METAR KGDP 180551Z AUTO 26025G30KT 10SM CLR 07/M01 A3013 RMK AO2 PK
WND 25030/0550 SLP171 T00671006 10089 20056 50002





000
SAUS44 KMAF 180615 COR
MTRGDP
METAR KGDP 180551Z AUTO 26025G30KT 10SM CLR 07/M01 A3013 RMK AO2 PK
WND 25030/0550 SLP171 T00671006 10089 20056 50002





000
SAUS44 KMAF 180554
MTR6R6
METAR K6R6 180553Z AUTO 27003KT 10/08 A3010 RMK AO1 SLP177 T01000083
10117 20067 401330067 51006





000
SAUS44 KMAF 180514
MTRGDP
METAR KGDP 180451Z AUTO 25020KT 10SM CLR 07/00 A3015 RMK AO2 PK WND
25028/0441 SLP182 T00670000





000
SAUS44 KMAF 180454
MTR6R6
METAR K6R6 180453Z AUTO 00000KT 10/08 A3009 RMK AO1 SLP177 T01000078





000
SAUS44 KMAF 180414
MTRGDP
METAR KGDP 180351Z AUTO 26018G25KT 10SM CLR 07/M01 A3014 RMK AO2 PK
WND 26026/0339 SLP187 T00671006





000
SAUS44 KMAF 180354
MTR6R6
METAR K6R6 180353Z AUTO 00000KT 07/06 A3009 RMK AO1 SLP179 T00720061





000
SAUS44 KMAF 180354
MTR6R6
METAR K6R6 180353Z AUTO 00000KT 07/06 A3009 RMK AO1 SLP179 T00720061





000
SAUS44 KMAF 180314
MTRGDP
METAR KGDP 180251Z AUTO 26016G24KT 10SM CLR 07/M01 A3012 RMK AO2
SLP183 T00721011 51022





000
SAUS44 KMAF 180254
MTR6R6
METAR K6R6 180253Z AUTO 00000KT 08/06 A3008 RMK AO1 SLP174 T00780061
51014





000
SAUS44 KMAF 180214
MTRGDP
METAR KGDP 180151Z AUTO 25017KT 10SM CLR 07/M03 A3010 RMK AO2 SLP178
T00721028





000
SAUS44 KMAF 180154
MTR6R6
METAR K6R6 180153Z AUTO 03005KT 08/06 A3006 RMK AO1 SLP170 T00780056





000
SAUS44 KMAF 180154
MTR6R6
METAR K6R6 180153Z AUTO 03005KT 08/06 A3006 RMK AO1 SLP170 T00780056





000
SAUS44 KMAF 180114
MTRGDP
METAR KGDP 180051Z AUTO 25020G24KT 10SM CLR 08/M03 A3008 RMK AO2 PK
WND 25030/2352 SLP168 T00781028





000
SAUS44 KMAF 180054
MTR6R6
METAR K6R6 180053Z AUTO 09004KT 11/08 A3005 RMK AO1 SLP162 T01060083





000
SAUS44 KMAF 180016 COR
MTRGDP
METAR KGDP 172351Z AUTO 24023G30KT 10SM FEW065 09/M02 A3005 RMK AO2
PK WND 25045/2305 SLP152 T00891022 10133 20089 53017





000
SAUS44 KMAF 180015 COR
MTRGDP
METAR KGDP 172351Z AUTO 24023G30KT 10SM FEW065 09/M02 A3005 RMK AO2
PK WND 25045/2305 SLP152 T00891022 10133 20089 53017





000
SAUS44 KMAF 180014
MTRGDP
METAR KGDP 172351Z AUTO 24023G30KT 10SM FEW065 09/M02 A3005 RMK AO2
PK WND 25045/2305 SLP152 T00891022 10133 20089 53017





000
SAUS44 KMAF 172354
MTR6R6
METAR K6R6 172353Z AUTO 05005KT 12/08 A3003 RMK AO1 SLP156 T01170083
10133 20117 53017





000
SAUS44 KMAF 172314
MTRGDP
METAR KGDP 172251Z AUTO 24031G43KT 10SM OVC070 11/M03 A3001 RMK AO2
PK WND 25043/2210 SLP132 T01111028





000
SAUS44 KMAF 172254
MTR6R6
METAR K6R6 172253Z AUTO 10008KT 12/08 A3000 RMK AO1 SLP144 T01220083





000
SAUS44 KMAF 172214
MTRGDP
METAR KGDP 172151Z AUTO 25033G41KT 10SM OVC070 11/M03 A3000 RMK AO2
PK WND 25041/2147 SLP134 T01061033





000
SAUS44 KMAF 172154
MTR6R6
METAR K6R6 172153Z AUTO 12006KT 13/08 A2999 RMK AO1 SLP140 T01280083





000
SAUS44 KMAF 172154
MTR6R6
METAR K6R6 172153Z AUTO 12006KT 13/08 A2999 RMK AO1 SLP140 T01280083





000
SAUS44 KMAF 172114
MTRGDP
METAR KGDP 172051Z AUTO 24030G43KT 10SM BKN060 12/M02 A2999 RMK AO2
PK WND 25045/2041 SLP131 T01171022 55020





000
SAUS44 KMAF 172054
MTR6R6
METAR K6R6 172053Z AUTO 10008KT 13/08 A2998 RMK AO1 SLP137 T01280083
56030





000
SAUS44 KMAF 172014
MTRGDP
METAR KGDP 171951Z AUTO 25036G45KT 10SM BKN060 11/M03 A2997 RMK AO2
PK WND 25051/1927 SLP125 T01111028





000
SAUS44 KMAF 171954
MTR6R6
METAR K6R6 171953Z AUTO 05005KT 12/08 A3001 RMK AO1 SLP147 T01220083





000
SAUS44 KMAF 171916 COR
MTRGDP
METAR KGDP 171851Z AUTO 25041G47KT 10SM BKN046 BKN055 11/M02 A2999
RMK AO2 PK WND 25047/1849 PRESFR SLP132 T01061017





000
SAUS44 KMAF 171915 COR
MTRGDP
METAR KGDP 171851Z AUTO 25041G47KT 10SM BKN046 BKN055 11/M02 A2999
RMK AO2 PK WND 25047/1849 PRESFR SLP132 T01061017





000
SAUS44 KMAF 171914
MTRGDP
METAR KGDP 171851Z AUTO 25041G47KT 10SM BKN046 BKN055 11/M02 A2999
RMK AO2 PK WND 25047/1849 PRESFR SLP132 T01061017





000
SAUS44 KMAF 171854
MTR6R6
METAR K6R6 171853Z AUTO 05006KT 13/08 A3004 RMK AO1 SLP157 T01280078





000
SAUS44 KMAF 171815 COR
MTRGDP
METAR KGDP 171751Z AUTO 25029G37KT 10SM FEW055 12/00 A3006 RMK AO2
PK WND 24039/1729 SLP153 T01170000 10117 20028 58002





000
SAUS44 KMAF 171814
MTRGDP
METAR KGDP 171751Z AUTO 25029G37KT 10SM FEW055 12/00 A3006 RMK AO2
PK WND 24039/1729 SLP153 T01170000 10117 20028 58002





000
SAUS44 KMAF 171754
MTR6R6
METAR K6R6 171753Z AUTO VRB06KT 12/08 A3008 RMK AO1 SLP170 T01170078
10117 20094 50001





000
SAUS44 KMAF 171714
MTRGDP
METAR KGDP 171651Z AUTO 25026G33KT 10SM CLR 09/01 A3007 RMK AO2 PK
WND 24033/1650 SLP160 T00940006





000
SAUS44 KMAF 171614
MTRGDP
METAR KGDP 171551Z AUTO 24017KT 10SM CLR 06/M01 A3008 RMK AO2 SLP170
T00611006





000
SAUS44 KMAF 171554
MTR6R6
METAR K6R6 171553Z AUTO 12008KT 11/08 A3008 RMK AO1 SLP173 T01060078





000
SAUS44 KMAF 171554
MTR6R6
METAR K6R6 171553Z AUTO 12008KT 11/08 A3008 RMK AO1 SLP173 T01060078





000
SAUS44 KMAF 171514
MTRGDP
METAR KGDP 171451Z AUTO 24010KT 10SM CLR 05/M01 A3007 RMK AO2 SLP169
T00501006 51009





000
SAUS44 KMAF 171454
MTR6R6
METAR K6R6 171453Z AUTO 10009KT 09/07 A3007 RMK AO1 SLP170 T00940067
50010





000
SAUS44 KMAF 171414
MTRGDP
METAR KGDP 171351Z AUTO 26012KT 9SM FEW095 03/00 A3007 RMK AO2
SLP175 T00330000





000
SAUS44 KMAF 171354
MTR6R6
METAR K6R6 171353Z AUTO 09007KT 09/05 A3009 RMK AO1 SLP177 T00940050





000
SAUS44 KMAF 171314
MTRGDP
METAR KGDP 171251Z AUTO 25007KT 10SM SCT095 04/01 A3005 RMK AO2
SLP166 T00440006





000
SAUS44 KMAF 171254
MTR6R6
METAR K6R6 171253Z AUTO 10009KT 10/04 A3007 RMK AO1 SLP169 T01000039





000
SAUS44 KMAF 171214
MTRGDP
METAR KGDP 171151Z AUTO 22006KT 10SM CLR 06/01 A3004 RMK AO2 SLP157
T00560011 10067 20028 55007





000
SAUS44 KMAF 171154
MTR6R6
METAR K6R6 171153Z AUTO 10009KT 10/03 A3004 RMK AO1 SLP157 7////
T01000028 10111 20094 55014





000
SAUS44 KMAF 171114
MTRGDP
METAR KGDP 171051Z AUTO 12004KT 10SM CLR 07/01 A3003 RMK AO2 SLP150
T00670011





000
SAUS44 KMAF 171054
MTR6R6
METAR K6R6 171053Z AUTO 10005KT 10/01 A3004 RMK AO1 SLP156 T01000011





000
SAUS44 KMAF 171014
MTRGDP
METAR KGDP 170951Z AUTO VRB03KT 10SM CLR 03/M02 A3006 RMK AO2 SLP166
T00331022





000
SAUS44 KMAF 170954
MTR6R6
METAR K6R6 170953Z AUTO 07006KT 09/01 A3006 RMK AO1 SLP164 T00940006





000
SAUS44 KMAF 170954
MTR6R6
METAR K6R6 170953Z AUTO 07006KT 09/01 A3006 RMK AO1 SLP164 T00940006





000
SAUS44 KMAF 170914
MTRGDP
METAR KGDP 170851Z AUTO 04007KT 10SM CLR 03/M03 A3006 RMK AO2 SLP169
T00281033 55018





000
SAUS44 KMAF 170914
MTRGDP
METAR KGDP 170851Z AUTO 04007KT 10SM CLR 03/M03 A3006 RMK AO2 SLP169
T00281033 55018





000
SAUS44 KMAF 170854
MTR6R6
METAR K6R6 170853Z AUTO 07006KT 10/01 A3008 RMK AO1 SLP170 T01000006
56024





000
SAUS44 KMAF 170854
MTR6R6
METAR K6R6 170853Z AUTO 07006KT 10/01 A3008 RMK AO1 SLP170 T01000006
56024





000
SAUS44 KMAF 170814
MTRGDP
METAR KGDP 170751Z AUTO 06019KT 10SM CLR 03/M03 A3004 RMK AO2 SLP162
T00281033





000
SAUS44 KMAF 170814
MTRGDP
METAR KGDP 170751Z AUTO 06019KT 10SM CLR 03/M03 A3004 RMK AO2 SLP162
T00281033





000
SAUS44 KMAF 170754
MTR6R6
METAR K6R6 170753Z AUTO 08008KT 11/01 A3009 RMK AO1 SLPNO T01060006





000
SAUS44 KMAF 170754
MTR6R6
METAR K6R6 170753Z AUTO 08008KT 11/01 A3009 RMK AO1 SLPNO T01060006





000
SAUS44 KMAF 170714
MTRGDP
METAR KGDP 170651Z AUTO 05018KT 10SM CLR 03/M03 A3009 RMK AO2 SLP175
T00331028 400780017





000
SAUS44 KMAF 170714
MTRGDP
METAR KGDP 170651Z AUTO 05018KT 10SM CLR 03/M03 A3009 RMK AO2 SLP175
T00331028 400780017





000
SAUS44 KMAF 170654
MTR6R6
METAR K6R6 170653Z AUTO 09009KT 11/01 A3013 RMK AO1 SLP192 T01110011





000
SAUS44 KMAF 170622 COR
MTRGDP
METAR KGDP 170551Z AUTO 06022KT 10SM CLR 03/M03 A3012 RMK AO2 PK WND
05028/0459 SLP190 T00331028 10050 20028 56006





000
SAUS44 KMAF 170621 COR
MTRGDP
METAR KGDP 170551Z AUTO 06022KT 10SM CLR 03/M03 A3012 RMK AO2 PK WND
05028/0459 SLP190 T00331028 10050 20028 56006





000
SAUS44 KMAF 170616 COR
MTRGDP
METAR KGDP 170551Z AUTO 06022KT 10SM CLR 03/M03 A3012 RMK AO2 PK WND
05028/0459 SLP190 T00331028 10050 20028 56006





000
SAUS44 KMAF 170616 COR
MTRGDP
METAR KGDP 170551Z AUTO 06022KT 10SM CLR 03/M03 A3012 RMK AO2 PK WND
05028/0459 SLP190 T00331028 10050 20028 56006





000
SAUS44 KMAF 170615 COR
MTRGDP
METAR KGDP 170551Z AUTO 06022KT 10SM CLR 03/M03 A3012 RMK AO2 PK WND
05028/0459 SLP190 T00331028 10050 20028 56006





000
SAUS44 KMAF 170615 COR
MTRGDP
METAR KGDP 170551Z AUTO 06022KT 10SM CLR 03/M03 A3012 RMK AO2 PK WND
05028/0459 SLP190 T00331028 10050 20028 56006





000
SAUS44 KMAF 170614
MTRGDP
METAR KGDP 170551Z AUTO 06022KT 10SM CLR 03/M03 A3012 RMK AO2 PK WND
05028/0459 SLP190 T00331028 10050 20028 56006





000
SAUS44 KMAF 170555
MTR6R6
METAR K6R6 170553Z AUTO 09009KT 11/01 A3016 RMK AO1 SLP201 T01110006
10128 20106 401670083 58008





000
SAUS44 KMAF 170514
MTRGDP
METAR KGDP 170451Z AUTO 05024KT 10SM CLR 04/M03 A3013 RMK AO2 PK WND
04034/0411 SLP192 T00441028





000
SAUS44 KMAF 170454
MTR6R6
METAR K6R6 170453Z AUTO 10007KT 11/00 A3017 RMK AO1 SLP204 T01110000





000
SAUS44 KMAF 170454
MTR6R6
METAR K6R6 170453Z AUTO 10007KT 11/00 A3017 RMK AO1 SLP204 T01110000





000
SAUS44 KMAF 170414
MTRGDP
METAR KGDP 170351Z AUTO 05026KT 10SM CLR 05/M03 A3013 RMK AO2 PK WND
05036/0309 SLP194 T00501028





000
SAUS44 KMAF 170354
MTR6R6
METAR K6R6 170353Z AUTO 10008KT 11/01 A3019 RMK AO1 SLP210 T01110011





000
SAUS44 KMAF 170314
MTRGDP
METAR KGDP 170251Z AUTO 05025KT 10SM CLR 04/M03 A3014 RMK AO2 PK WND
05032/0237 SLP203 T00441028 51003





000
SAUS44 KMAF 170254
MTR6R6
METAR K6R6 170253Z AUTO 10008KT 11/02 A3018 RMK AO1 SLP207 T01110017
50001





000
SAUS44 KMAF 170214
MTRGDP
METAR KGDP 170151Z AUTO 05025KT 10SM CLR 03/M03 A3015 RMK AO2 PK WND
05033/0124 SLP206 T00281033





000
SAUS44 KMAF 170154
MTR6R6
METAR K6R6 170153Z AUTO 08007KT 11/02 A3019 RMK AO1 SLP208 T01060022





000
SAUS44 KMAF 170114
MTRGDP
METAR KGDP 170051Z AUTO 05028KT 10SM CLR 03/M03 A3014 RMK AO2 PK WND
06031/0034 SLP203 T00281033





000
SAUS44 KMAF 170054
MTR6R6
METAR K6R6 170053Z AUTO 10013KT 12/02 A3020 RMK AO1 SLP212 T01170017





000
SAUS44 KMAF 170016 COR
MTRGDP
METAR KGDP 162351Z AUTO 06027KT 10SM CLR 04/M03 A3014 RMK AO2 PK WND
06029/2347 SLP202 T00391033 10072 20039 52001





000
SAUS44 KMAF 170015 COR
MTRGDP
METAR KGDP 162351Z AUTO 06027KT 10SM CLR 04/M03 A3014 RMK AO2 PK WND
06029/2347 SLP202 T00391033 10072 20039 52001





000
SAUS44 KMAF 170014
MTRGDP
METAR KGDP 162351Z AUTO 06027KT 10SM CLR 04/M03 A3014 RMK AO2 PK WND
06029/2347 SLP202 T00391033 10072 20039 52001





000
SAUS44 KMAF 162356
MTR6R6
METAR K6R6 162353Z AUTO 11011G21KT 13/M01 A3018 RMK AO1 SLP205 6////
T01281011 10167 20083 53008





000
SAUS44 KMAF 162313
MTRGDP
METAR KGDP 162251Z AUTO 06026KT 10SM CLR 05/M03 A3014 RMK AO2 PK WND
05030/2159 SLP199 T00501028





000
SAUS44 KMAF 162254
MTR6R6
METAR K6R6 162253Z AUTO 09013G21KT 14/M01 A3016 RMK AO1 SLP196
T01441006





000
SAUS44 KMAF 162213
MTRGDP
METAR KGDP 162151Z AUTO 06027KT 10SM CLR 06/M03 A3013 RMK AO2 PK WND
06030/2125 SLP189 T00611028





000
SAUS44 KMAF 162154
MTR6R6
METAR K6R6 162153Z AUTO 10014KT 15/M01 A3016 RMK AO1 SLP194
T01501006





000
SAUS44 KMAF 162114
MTRGDP
METAR KGDP 162051Z AUTO 07025KT 10SM CLR 06/M03 A3013 RMK AO2 PK WND
06029/2045 SLP188 T00611033 56021





000
SAUS44 KMAF 162114
MTRGDP
METAR KGDP 162051Z AUTO 07025KT 10SM CLR 06/M03 A3013 RMK AO2 PK WND
06029/2045 SLP188 T00611033 56021





000
SAUS44 KMAF 162054
MTR6R6
METAR K6R6 162053Z AUTO 11013KT 17/M01 A3016 RMK AO1 WSHFT 1951
SLP192 6//// T01671011





000
SAUS44 KMAF 162014
MTRGDP
METAR KGDP 161951Z AUTO 06022KT 10SM CLR 06/M03 A3016 RMK AO2 PK WND
05029/1855 SLP190 T00611033





000
SAUS44 KMAF 162012
MTR6R6
SPECI K6R6 162011Z AUTO 10015G21KT 16/M01 A3017 RMK AO1 WSHFT 1951
T01611011





000
SAUS44 KMAF 161914
MTRGDP
METAR KGDP 161851Z AUTO 05027KT 10SM CLR 07/M04 A3018 RMK AO2 PK WND
05034/1755 SLP199 T00671039





000
SAUS44 KMAF 161814
MTRGDP
METAR KGDP 161751Z AUTO 05030KT 10SM CLR 06/M04 A3021 RMK AO2 PK WND
05039/1659 SLP210 T00561044 10061 20017 58002





000
SAUS44 KMAF 161744
MTRGDP
SPECI KGDP 161721Z AUTO 05032KT 10SM CLR 04/M04 A3022 RMK AO2 PK WND
05039/1659 T00441044





000
SAUS44 KMAF 161728
MTRGDP
SPECI KGDP 161706Z AUTO 06034KT 1 3/4SM HZ CLR 05/M04 A3023 RMK AO2
PK WND 05039/1659 T00501044





000
SAUS44 KMAF 161714
MTRGDP
METAR KGDP 161651Z AUTO 05034KT 10SM CLR 04/M04 A3023 RMK AO2 PK WND
05043/1600 SLP224 T00441044





000
SAUS44 KMAF 161613
MTRGDP
METAR KGDP 161551Z AUTO 05039KT 10SM CLR 03/M05 A3022 RMK AO2 PK WND
05042/1454 SLP218 T00331050





000
SAUS44 KMAF 161552
MTRGDP
SPECI KGDP 161529Z AUTO 05037KT 3SM HZ CLR 03/M06 A3022 RMK AO2 PK
WND 05042/1454 T00281056





000
SAUS44 KMAF 161549
MTRGDP
SPECI KGDP 161526Z AUTO 05038KT 1 3/4SM HZ CLR 03/M06 A3022 RMK AO2
PK WND 05042/1454 VIS 1/2V5 T00281056





000
SAUS44 KMAF 161514
MTRGDP
METAR KGDP 161451Z AUTO 06035KT 10SM CLR 02/M06 A3022 RMK AO2 PK WND
05042/1423 SLP218 T00221061 51006





000
SAUS44 KMAF 161414
MTRGDP
METAR KGDP 161351Z AUTO 05035KT 10SM CLR 03/M07 A3020 RMK AO2 PK WND
05040/1342 SLP214 T00281072





000
SAUS44 KMAF 161314
MTRGDP
METAR KGDP 161251Z AUTO 05034KT 10SM CLR 02/M07 A3021 RMK AO2 PK WND
05037/1214 SLP212 T00221072





000
SAUS44 KMAF 161215 COR
MTRGDP
METAR KGDP 161151Z AUTO 05030KT 10SM CLR 02/M07 A3019 RMK AO2 PK WND
05033/1150 SLP210 T00171072 10078 20017 51000





000
SAUS44 KMAF 161214
MTRGDP
METAR KGDP 161151Z AUTO 05030KT 10SM CLR 02/M07 A3019 RMK AO2 PK WND
05033/1150 SLP210 T00171072 10078 20017 51000





000
SAUS44 KMAF 161154
MTR6R6
METAR K6R6 161153Z AUTO 01009KT 08/M02 A3021 RMK AO1 SLP213
T00831022 10117 20083 51012





000
SAUS44 KMAF 161114
MTRGDP
METAR KGDP 161051Z AUTO 06028KT 10SM CLR 02/M08 A3019 RMK AO2 PK WND
05032/1011 SLP204 T00221083





000
SAUS44 KMAF 161054
MTR6R6
METAR K6R6 161053Z AUTO 36006KT 08/M03 A3020 RMK AO1 SLP207
T00831028





000
SAUS44 KMAF 161014
MTRGDP
METAR KGDP 160951Z AUTO 05027KT 10SM CLR 04/M08 A3020 RMK AO2 PK WND
05032/0904 SLP202 T00391078





000
SAUS44 KMAF 160954
MTR6R6
METAR K6R6 160953Z AUTO 02010KT 09/M04 A3018 RMK AO1 SLP200
T00891039





000
SAUS44 KMAF 160954
MTR6R6
METAR K6R6 160953Z AUTO 02010KT 09/M04 A3018 RMK AO1 SLP200
T00891039





000
SAUS44 KMAF 160914
MTRGDP
METAR KGDP 160851Z AUTO 05027KT 10SM CLR 04/M08 A3019 RMK AO2 PK WND
06032/0824 SLP198 T00441083 53001





000
SAUS44 KMAF 160854
MTR6R6
METAR K6R6 160853Z AUTO 02010KT 10/M04 A3017 RMK AO1 SLP196
T01001039 53007





000
SAUS44 KMAF 160814
MTRGDP
METAR KGDP 160751Z AUTO 05026KT 10SM CLR 08/M08 A3018 RMK AO2 PK WND
05029/0744 SLP190 T00781083





000
SAUS44 KMAF 160754
MTR6R6
METAR K6R6 160753Z AUTO 01009KT 11/M04 A3016 RMK AO1 SLP192
T01061039





000
SAUS44 KMAF 160714
MTRGDP
METAR KGDP 160651Z AUTO 05024KT 10SM CLR 07/M08 A3018 RMK AO2 PK WND
05028/0644 SLP188 T00671078 401330006





000
SAUS44 KMAF 160654
MTR6R6
METAR K6R6 160653Z AUTO 01009KT 11/M03 A3015 RMK AO1 SLP189
T01061033





000
SAUS44 KMAF 160613
MTRGDP
METAR KGDP 160551Z AUTO 05025KT 10SM CLR 07/M07 A3019 RMK AO2 PK WND
05026/0551 SLP192 T00721072 10100 20061 50004





000
SAUS44 KMAF 160554
MTR6R6
METAR K6R6 160553Z AUTO 02008KT 12/M03 A3015 RMK AO1 SLP190
T01171028 10183 20117 402390050 51016





000
SAUS44 KMAF 160513
MTRGDP
METAR KGDP 160451Z AUTO 04015KT 10SM CLR 07/M07 A3021 RMK AO2 SLP203
T00671067





000
SAUS44 KMAF 160454
MTR6R6
METAR K6R6 160453Z AUTO 02008KT 12/M02 A3014 RMK AO1 SLP187
T01221022





000
SAUS44 KMAF 160413
MTRGDP
METAR KGDP 160351Z AUTO 05007KT 10SM CLR 08/M08 A3020 RMK AO2 SLP211
T00781083





000
SAUS44 KMAF 160354
MTR6R6
METAR K6R6 160353Z AUTO 01007KT 13/M02 A3012 RMK AO1 SLP181
T01281017





000
SAUS44 KMAF 160354
MTR6R6
METAR K6R6 160353Z AUTO 01007KT 13/M02 A3012 RMK AO1 SLP181
T01281017





000
SAUS44 KMAF 160314
MTRGDP
METAR KGDP 160251Z AUTO 24010KT 10SM CLR 09/M12 A3017 RMK AO2 SLP206
T00891122 51012





000
SAUS44 KMAF 160254
MTR6R6
METAR K6R6 160253Z AUTO 07003KT 12/M01 A3010 RMK AO1 SLP178
T01221011 51027





000
SAUS44 KMAF 160214
MTRGDP
METAR KGDP 160151Z AUTO 25011KT 10SM CLR 08/M12 A3017 RMK AO2 SLP206
T00831122





000
SAUS44 KMAF 160154
MTR6R6
METAR K6R6 160153Z AUTO 10003KT 14/M01 A3008 RMK AO1 SLP175
T01391011





000
SAUS44 KMAF 160114
MTRGDP
METAR KGDP 160051Z AUTO 25013KT 10SM CLR 09/M12 A3015 RMK AO2 SLP198
T00941122





000
SAUS44 KMAF 160054
MTR6R6
METAR K6R6 160053Z AUTO 04005KT 15/M01 A3005 RMK AO1 SLP162
T01501011





000
SAUS44 KMAF 160014
MTRGDP
METAR KGDP 152351Z AUTO 23007KT 10SM CLR 09/M12 A3013 RMK AO2 SLP191
T00941117 10133 20094 53015





000
SAUS44 KMAF 152355
MTR6R6
METAR K6R6 152353Z AUTO 08006KT 19/M01 A3002 RMK AO1 SLP148
T01891011 10239 20189 53011





000
SAUS44 KMAF 152314
MTRGDP
METAR KGDP 152251Z AUTO 24019KT 10SM CLR 11/M11 A3011 RMK AO2 SLP178
T01111111





000
SAUS44 KMAF 152255
MTR6R6
METAR K6R6 152253Z AUTO 19003KT 23/M03 A2999 RMK AO1 SLP135
T02331033





000
SAUS44 KMAF 152213
MTRGDP
METAR KGDP 152151Z AUTO 25020KT 10SM CLR 13/M12 A3010 RMK AO2 PK WND
24028/2055 SLP170 T01281117





000
SAUS44 KMAF 152154
MTR6R6
METAR K6R6 152153Z AUTO 22005KT 24/M03 A2999 RMK AO1 SLP132
T02391033





000
SAUS44 KMAF 152154
MTR6R6
METAR K6R6 152153Z AUTO 22005KT 24/M03 A2999 RMK AO1 SLP132
T02391033





000
SAUS44 KMAF 152113
MTRGDP
METAR KGDP 152051Z AUTO 24024G31KT 10SM CLR 12/M12 A3008 RMK AO2 PK
WND 25034/1952 SLP163 T01221117 55013





000
SAUS44 KMAF 152113
MTRGDP
METAR KGDP 152051Z AUTO 24024G31KT 10SM CLR 12/M12 A3008 RMK AO2 PK
WND 25034/1952 SLP163 T01221117 55013





000
SAUS44 KMAF 152054
MTR6R6
METAR K6R6 152053Z AUTO VRB04KT 23/M04 A2998 RMK AO1 SLP131
T02331039 56024 $





000
SAUS44 KMAF 152014
MTRGDP
METAR KGDP 151951Z AUTO 25028G32KT 10SM CLR 11/M12 A3007 RMK AO2 PK
WND 25034/1949 SLP160 T01111117





000
SAUS44 KMAF 151954
MTR6R6
METAR K6R6 151953Z AUTO 24007KT 23/M04 A2999 RMK AO1 SLP135
T02281039 $





000
SAUS44 KMAF 151914
MTRGDP
METAR KGDP 151851Z AUTO 25023G30KT 10SM CLR 12/M10 A3010 RMK AO2 PK
WND 23031/1802 SLP169 T01171100





000
SAUS44 KMAF 151854
MTR6R6
METAR K6R6 151853Z AUTO 23006KT 22/M03 A3002 RMK AO1 SLP145
T02171033 $





000
SAUS44 KMAF 151814
MTRGDP
METAR KGDP 151751Z AUTO 24022G28KT 10SM CLR 11/M09 A3013 RMK AO2 PK
WND 24032/1738 SLP177 T01111094 10111 20006 51008





000
SAUS44 KMAF 151754
MTR6R6
METAR K6R6 151753Z AUTO 23006KT 20/M03 A3006 RMK AO1 SLP158
T02001033 10200 20050 $





000
SAUS44 KMAF 151713
MTRGDP
METAR KGDP 151651Z AUTO 24023G31KT 10SM CLR 09/M09 A3013 RMK AO2 PK
WND 24031/1644 SLP176 T00941094





000
SAUS44 KMAF 151654
MTR6R6
METAR K6R6 151653Z AUTO 00000KT 18/M03 A3007 RMK AO1 SLP164
T01831033 $





000
SAUS44 KMAF 151613
MTRGDP
METAR KGDP 151551Z AUTO 23023KT 10SM CLR 04/M08 A3012 RMK AO2 PK WND
23028/1548 SLP183 T00441078





000
SAUS44 KMAF 151554
MTR6R6
METAR K6R6 151553Z AUTO 00000KT 16/M03 A3006 RMK AO1 SLP161
T01611033





000
SAUS44 KMAF 151513
MTRGDP
METAR KGDP 151451Z AUTO 22018G22KT 10SM CLR 01/M07 A3010 RMK AO2 PK
WND 23028/1419 SLP184 T00061072 53020





000
SAUS44 KMAF 151454
MTR6R6
METAR K6R6 151453Z AUTO 00000KT 12/M01 A3004 RMK AO1 SLP158
T01171006 53019





000
SAUS44 KMAF 151413
MTRGDP
METAR KGDP 151351Z AUTO 23020KT 10SM CLR 01/M07 A3007 RMK AO2 PK WND
23028/1329 SLP175 T00061072





000
SAUS44 KMAF 151354
MTR6R6
METAR K6R6 151353Z AUTO 00000KT 06/M02 A3002 RMK AO1 SLP151
T00611017





000
SAUS44 KMAF 151314
MTRGDP
METAR KGDP 151251Z AUTO 23023KT 10SM CLR 01/M07 A3005 RMK AO2 PK WND
23031/1204 SLP166 T00061067





000
SAUS44 KMAF 151254
MTR6R6
METAR K6R6 151253Z AUTO 31003KT 07/M02 A3000 RMK AO1 SLP141
T00671017 $





000
SAUS44 KMAF 151215 COR
MTRGDP
METAR KGDP 151151Z AUTO 24024KT 10SM CLR 01/M07 A3003 RMK AO2 PK WND
24032/1134 SLP157 T00061067 10044 20006 53009





000
SAUS44 KMAF 151214 COR
MTRGDP
METAR KGDP 151151Z AUTO 24024KT 10SM CLR 01/M07 A3003 RMK AO2 PK WND
24032/1134 SLP157 T00061067 10044 20006 53009





000
SAUS44 KMAF 151213
MTRGDP
METAR KGDP 151151Z AUTO 24024KT 10SM CLR 01/M07 A3003 RMK AO2 PK WND
24032/1134 SLP157 T00061067 10044 20006 53009





000
SAUS44 KMAF 151154
MTR6R6
METAR K6R6 151153Z AUTO 30005KT 07/M02 A2998 RMK AO1 SLP135
T00671017 10106 20061 53008 $





000
SAUS44 KMAF 151114
MTRGDP
METAR KGDP 151051Z AUTO 23025KT 10SM CLR 01/M06 A3001 RMK AO2 PK WND
22030/1046 SLP145 T00111061





000
SAUS44 KMAF 151054
MTR6R6
METAR K6R6 151053Z AUTO 27003KT 10/M01 A2996 RMK AO1 SLP124
T01001011 $





000
SAUS44 KMAF 151014
MTRGDP
METAR KGDP 150951Z AUTO 23025KT 10SM CLR 01/M06 A3001 RMK AO2 PK WND
23031/0904 SLP143 T00111056





000
SAUS44 KMAF 150954
MTR6R6
METAR K6R6 150953Z AUTO VRB03KT 08/M01 A2997 RMK AO1 SLP128
T00781006 $





000
SAUS44 KMAF 150913
MTRGDP
METAR KGDP 150851Z AUTO 23025KT 10SM CLR 02/M06 A3000 RMK AO2 PK WND
22030/0845 SLP136 T00171056 51004





000
SAUS44 KMAF 150854
MTR6R6
METAR K6R6 150853Z AUTO 00000KT 09/M01 A2996 RMK AO1 SLP123
T00891006 53008 $





000
SAUS44 KMAF 150813
MTRGDP
METAR KGDP 150751Z AUTO 25024G31KT 10SM CLR 03/M06 A3000 RMK AO2 PK
WND 24033/0704 SLP131 T00331061





000
SAUS44 KMAF 150813
MTRGDP
METAR KGDP 150751Z AUTO 25024G31KT 10SM CLR 03/M06 A3000 RMK AO2 PK
WND 24033/0704 SLP131 T00331061





000
SAUS44 KMAF 150754
MTR6R6
METAR K6R6 150753Z AUTO 00000KT 09/00 A2994 RMK AO1 SLP119 T00890000
$





000
SAUS44 KMAF 150754
MTR6R6
METAR K6R6 150753Z AUTO 00000KT 09/00 A2994 RMK AO1 SLP119 T00890000
$





    US Dept of Commerce
    National Oceanic and Atmospheric Administration
    National Weather Service
    1325 East West Highway
    Silver Spring, MD 20910
    Page Author: NWS Internet Services Team
Disclaimer
Information Quality
Credits
Glossary
Privacy Policy
Freedom of Information Act (FOIA)
About Us
Career Opportunities